Norfolk Ns (Chambers Fld) Airport
KNGU : now visible

Airfield :











YOU CAN JOIN US ON...

 
LOGIN :

Register | Disclaimer

   EN    FR    IT 

 









Legend :    VFR   Marginal VFR   IFR   Intensive IFR   Very Intensive IFR
Visi :
Ceiling :
>= 8 km
>= 3000ft
5 to 8 km
1000 to 3000 ft
1500m to 5 km
500 to 1000 ft
800 to 1500m
200 to 500 ft
< 800m
< 200 ft
Symbols :   Thunderstorms  Fog  Heavy snow  Heavy precipitations  Wind > 20 kt






- Airport Elevation : 17 ft


KNGU - Norfolk Ns (Chambers Fld)

CURRENT METAR :
  • 050059Z 13005KT 9SM FEW020 SCT300 25/21 A2994 RMK AO2 SLP139 T02500211 $

EXPIRED METARs :
  • 042359Z 12006KT 10SM FEW020 SCT300 26/21 A2993 RMK AO2 SLP136 T02610211 10294 20261 53001 $
  • 042259Z 09010KT 9SM FEW020 SCT120 BKN300 27/22 A2993 RMK AO2 SLP135 T2 SET T02670217 $

TAF TAF KNGU
Valid from the 04 at 23:00 until the 05 at 23:00 UTC


0423/0523 08008KT 9999 VCTS SCT025CB BKN050 QNH2985INS
BECMG 0502/0504 VRB06KT 9999 SCT030 BKN250 QNH2989INS
TEMPO 0509/0512 VRB06KT 6000 BR BKN030
FM051200 06007KT 9999 FEW030 SCT250 QNH2989INS T22/0503Z T30/0518Z FN00230
KZDC FIR / North America



MET'MAP, your aeronautical weather chart ! - Copyright ORBIFLY December 2007 - Disclaimer

ORBIFLY MET'MAP TEAM :

Programming & Development : Alexandra Zaïnal
Concept & original design : Baudouin d'Aumeries
Assistance for programming : Marc-Olivier Méhu
Technical & hardware support : Manuel Goepfert

Contact : metmap@orbifly.com




SOURCES & CREDITS :

   NOAA       Earth
Advisory